createdAt,value
2022-08-05T00:00:35.169Z,989.44
2022-08-05T00:01:36.090Z,989.48
2022-08-05T00:02:34.994Z,989.53
2022-08-05T00:03:34.203Z,989.51
2022-08-05T00:04:34.115Z,989.48
2022-08-05T00:06:05.257Z,989.50
2022-08-05T00:06:35.844Z,989.53
2022-08-05T00:08:00.936Z,989.46
2022-08-05T00:08:36.393Z,989.47
2022-08-05T00:09:33.962Z,989.50
2022-08-05T00:10:34.018Z,989.46
2022-08-05T00:11:35.029Z,989.51
2022-08-05T00:12:35.143Z,989.53
2022-08-05T00:13:39.037Z,989.49
2022-08-05T00:14:34.022Z,989.59
2022-08-05T00:15:56.349Z,989.65
2022-08-05T00:16:35.358Z,989.65
2022-08-05T00:17:33.906Z,989.65
2022-08-05T00:18:33.907Z,989.66
2022-08-05T00:19:40.683Z,989.62
2022-08-05T00:20:34.762Z,989.65
2022-08-05T00:21:35.997Z,989.70
2022-08-05T00:22:33.923Z,989.72
2022-08-05T00:23:46.702Z,989.75
2022-08-05T00:24:34.751Z,989.78
2022-08-05T00:25:34.599Z,989.77
2022-08-05T00:26:34.841Z,989.81
2022-08-05T00:27:36.511Z,989.75
2022-08-05T00:28:33.715Z,989.72
2022-08-05T00:29:37.955Z,989.71
2022-08-05T00:30:33.767Z,989.69
2022-08-05T00:31:53.085Z,989.64
2022-08-05T00:32:34.786Z,989.67
2022-08-05T00:34:53.259Z,989.67
2022-08-05T00:34:53.755Z,989.75
2022-08-05T00:35:34.651Z,989.76
2022-08-05T00:37:11.094Z,989.81
2022-08-05T00:37:50.399Z,989.82
2022-08-05T00:38:34.756Z,989.77
2022-08-05T00:39:37.017Z,989.77
2022-08-05T00:40:34.645Z,989.86
2022-08-05T00:41:51.593Z,989.82
2022-08-05T00:42:34.590Z,989.85
2022-08-05T00:43:47.111Z,989.98
2022-08-05T00:44:34.517Z,990.06
2022-08-05T00:45:39.009Z,990.11
2022-08-05T00:46:42.710Z,990.11
2022-08-05T00:47:56.601Z,990.06
2022-08-05T00:48:34.536Z,990.06
2022-08-05T00:49:51.487Z,990.05
2022-08-05T00:50:34.444Z,990.04
2022-08-05T00:51:50.458Z,990.05
2022-08-05T00:52:34.516Z,990.08
2022-08-05T00:54:01.263Z,990.21
2022-08-05T00:54:34.613Z,990.20
2022-08-05T00:55:42.651Z,990.10
2022-08-05T00:56:34.452Z,990.09
2022-08-05T00:57:55.409Z,990.00
2022-08-05T00:58:34.392Z,989.90
2022-08-05T00:59:42.070Z,989.80
2022-08-05T01:00:34.335Z,989.76
2022-08-05T01:01:48.695Z,989.67
2022-08-05T01:02:34.357Z,989.74
2022-08-05T01:03:34.243Z,989.67
2022-08-05T01:04:33.333Z,989.73
2022-08-05T01:05:33.297Z,989.71
2022-08-05T01:06:33.296Z,989.72
2022-08-05T01:07:33.297Z,989.75
2022-08-05T01:08:43.333Z,989.74
2022-08-05T01:09:34.241Z,989.69
2022-08-05T01:10:33.264Z,989.77
2022-08-05T01:11:37.271Z,989.78
2022-08-05T01:12:33.217Z,989.86
2022-08-05T01:13:57.896Z,989.81
2022-08-05T01:14:34.253Z,989.89
2022-08-05T01:15:36.375Z,989.89
2022-08-05T01:16:33.193Z,989.93
2022-08-05T01:17:33.161Z,989.92
2022-08-05T01:18:34.234Z,989.99
2022-08-05T01:19:57.004Z,989.99
2022-08-05T01:20:34.142Z,989.99
2022-08-05T01:21:38.254Z,990.00
2022-08-05T01:22:34.319Z,989.96
2022-08-05T01:23:34.938Z,990.02
2022-08-05T01:24:33.150Z,990.12
2022-08-05T01:25:40.866Z,990.12
2022-08-05T01:26:34.087Z,990.19
2022-08-05T01:27:33.150Z,990.20
2022-08-05T01:28:33.093Z,990.29
2022-08-05T01:29:33.099Z,990.28
2022-08-05T01:30:34.716Z,990.30
2022-08-05T01:31:32.942Z,990.32
2022-08-05T01:32:34.014Z,990.38
2022-08-05T01:33:35.657Z,990.40
2022-08-05T01:34:32.995Z,990.37
2022-08-05T01:35:51.899Z,990.42
2022-08-05T01:36:34.043Z,990.44
2022-08-05T01:37:32.959Z,990.43
2022-08-05T01:38:32.903Z,990.45
2022-08-05T01:39:46.620Z,990.53
2022-08-05T01:40:33.894Z,990.58
2022-08-05T01:41:33.057Z,990.67
2022-08-05T01:42:32.963Z,990.68
2022-08-05T01:43:32.805Z,990.75
2022-08-05T01:44:34.247Z,990.78
2022-08-05T01:45:35.055Z,990.88
2022-08-05T01:46:46.086Z,990.91
2022-08-05T01:47:39.370Z,990.93
2022-08-05T01:48:33.854Z,990.97
2022-08-05T01:50:00.308Z,991.09
2022-08-05T01:50:33.954Z,991.22
2022-08-05T01:51:32.790Z,991.34
2022-08-05T01:52:32.739Z,991.42
2022-08-05T01:53:54.745Z,991.47
2022-08-05T01:54:33.864Z,991.56
2022-08-05T01:55:36.300Z,991.62
2022-08-05T01:58:10.553Z,991.68
2022-08-05T01:58:10.896Z,991.70
2022-08-05T01:59:04.466Z,991.70
2022-08-05T02:00:03.540Z,991.80
2022-08-05T02:01:03.387Z,991.82
2022-08-05T02:02:03.421Z,991.80
2022-08-05T02:03:03.508Z,991.77
2022-08-05T02:04:03.248Z,991.76
2022-08-05T02:05:03.354Z,991.77
2022-08-05T02:06:03.721Z,991.83
2022-08-05T02:07:04.212Z,991.85
2022-08-05T02:08:03.183Z,991.94
2022-08-05T02:09:03.192Z,991.93
2022-08-05T02:10:03.163Z,991.91
2022-08-05T02:11:03.731Z,991.87
2022-08-05T02:12:03.162Z,991.80
2022-08-05T02:13:04.786Z,991.80
2022-08-05T02:14:04.109Z,991.72
2022-08-05T02:15:03.979Z,991.73
2022-08-05T02:16:03.167Z,991.67
2022-08-05T02:17:03.125Z,991.61
2022-08-05T02:18:33.179Z,991.51
2022-08-05T02:19:07.075Z,991.49
2022-08-05T02:20:03.119Z,991.47
2022-08-05T02:21:03.057Z,991.49
2022-08-05T02:22:03.061Z,991.57
2022-08-05T02:23:03.054Z,991.53
2022-08-05T02:24:03.047Z,991.54
2022-08-05T02:25:03.028Z,991.53
2022-08-05T02:26:02.976Z,991.47
2022-08-05T02:27:10.234Z,991.44
2022-08-05T02:28:04.341Z,991.39
2022-08-05T02:29:04.111Z,991.36
2022-08-05T02:30:02.993Z,991.29
2022-08-05T02:31:02.957Z,991.28
2022-08-05T02:32:04.732Z,991.19
2022-08-05T02:33:03.002Z,991.05
2022-08-05T02:34:03.000Z,991.04
2022-08-05T02:35:13.489Z,991.00
2022-08-05T02:36:03.929Z,990.91
2022-08-05T02:37:02.906Z,990.79
2022-08-05T02:38:02.864Z,990.63
2022-08-05T02:39:03.001Z,990.46
2022-08-05T02:40:02.891Z,990.35
2022-08-05T02:41:14.672Z,990.19
2022-08-05T02:42:03.859Z,990.14
2022-08-05T02:43:02.833Z,989.95
2022-08-05T02:44:06.850Z,989.75
2022-08-05T02:45:03.928Z,989.44
2022-08-05T02:46:02.973Z,989.20
2022-08-05T02:47:02.900Z,988.99
2022-08-05T02:48:09.917Z,989.04
2022-08-05T02:49:03.801Z,989.02
2022-08-05T02:50:02.789Z,989.03
2022-08-05T02:51:02.747Z,989.07
2022-08-05T02:52:04.633Z,989.09
2022-08-05T02:53:02.681Z,989.16
2022-08-05T02:54:03.929Z,989.19
2022-08-05T02:55:05.142Z,989.12
2022-08-05T02:56:02.865Z,989.16
2022-08-05T02:57:02.725Z,989.10
2022-08-05T02:58:09.833Z,989.07
2022-08-05T02:59:03.884Z,989.07
2022-08-05T03:00:03.937Z,989.06
2022-08-05T03:01:02.791Z,989.03
2022-08-05T03:02:03.072Z,988.96
2022-08-05T03:03:02.706Z,988.87
2022-08-05T03:04:11.800Z,988.84
2022-08-05T03:05:04.676Z,988.78
2022-08-05T03:08:01.008Z,988.68
2022-08-05T03:08:43.769Z,988.76
2022-08-05T03:09:37.423Z,988.72
2022-08-05T03:10:37.522Z,988.83
2022-08-05T03:11:54.998Z,988.86
2022-08-05T03:12:36.782Z,988.88
2022-08-05T03:13:52.252Z,988.86
2022-08-05T03:14:45.933Z,988.89
2022-08-05T03:15:36.661Z,988.82
2022-08-05T03:16:35.970Z,988.75
2022-08-05T03:18:59.835Z,988.76
2022-08-05T03:19:04.204Z,988.84
2022-08-05T03:20:03.921Z,988.84
2022-08-05T03:22:50.150Z,989.02
2022-08-05T03:22:52.358Z,989.03
2022-08-05T03:23:52.083Z,989.11
2022-08-05T03:24:52.316Z,989.13
2022-08-05T03:26:04.780Z,989.20
2022-08-05T03:26:53.023Z,989.14
2022-08-05T03:27:59.263Z,989.20
2022-08-05T03:28:53.007Z,989.19
2022-08-05T03:30:08.333Z,989.17
2022-08-05T03:30:53.007Z,989.14
2022-08-05T03:31:57.122Z,989.16
2022-08-05T03:32:53.039Z,989.08
2022-08-05T03:33:52.951Z,989.07
2022-08-05T03:34:51.990Z,989.02
2022-08-05T03:35:51.955Z,988.99
2022-08-05T03:36:52.285Z,989.00
2022-08-05T03:37:53.537Z,988.96
2022-08-05T03:38:53.446Z,988.97
2022-08-05T03:40:00.912Z,988.87
2022-08-05T03:40:52.989Z,988.81
2022-08-05T03:41:52.664Z,988.77
2022-08-05T03:42:52.889Z,988.71
2022-08-05T03:44:08.241Z,988.67
2022-08-05T03:44:52.989Z,988.68
2022-08-05T03:45:57.271Z,988.70
2022-08-05T03:46:51.858Z,988.69
2022-08-05T03:47:51.819Z,988.65
2022-08-05T03:48:52.811Z,988.65
2022-08-05T03:49:52.519Z,988.69
2022-08-05T03:50:51.848Z,988.70
2022-08-05T03:52:50.073Z,988.62
2022-08-05T03:55:34.715Z,988.62
2022-08-05T03:55:49.851Z,988.57
2022-08-05T03:55:50.835Z,988.62
2022-08-05T03:56:10.601Z,988.64
2022-08-05T03:56:53.744Z,988.74
2022-08-05T03:57:51.787Z,988.73
2022-08-05T03:58:51.756Z,988.72
2022-08-05T03:59:54.827Z,988.74
2022-08-05T04:00:52.517Z,988.69
2022-08-05T04:01:52.156Z,988.73
2022-08-05T04:02:52.220Z,988.72
2022-08-05T04:04:08.899Z,988.83
2022-08-05T04:05:25.196Z,988.84
2022-08-05T04:05:51.688Z,988.88
2022-08-05T04:06:51.845Z,988.87
2022-08-05T04:07:57.947Z,988.84
2022-08-05T04:08:52.676Z,988.77
2022-08-05T04:09:53.402Z,988.77
2022-08-05T04:10:51.825Z,988.70
2022-08-05T04:11:52.754Z,988.78
2022-08-05T04:12:51.668Z,988.78
2022-08-05T04:13:53.611Z,988.85
2022-08-05T04:14:51.521Z,988.92
2022-08-05T04:15:52.613Z,988.94
2022-08-05T04:16:52.573Z,989.06
2022-08-05T04:17:56.226Z,989.10
2022-08-05T04:18:54.248Z,989.04
2022-08-05T04:19:54.591Z,989.06
2022-08-05T04:20:52.463Z,989.14
2022-08-05T04:22:08.357Z,989.28
2022-08-05T04:22:52.628Z,989.44
2022-08-05T04:24:04.765Z,989.64
2022-08-05T04:24:53.183Z,989.79
2022-08-05T04:25:57.338Z,990.00
2022-08-05T04:26:51.469Z,990.27
2022-08-05T04:27:57.338Z,990.76
2022-08-05T04:28:52.365Z,991.08
2022-08-05T04:29:51.302Z,991.17
2022-08-05T04:30:51.313Z,991.22
2022-08-05T04:31:51.410Z,991.21
2022-08-05T04:32:51.354Z,991.14
2022-08-05T04:34:18.010Z,991.10
2022-08-05T04:34:52.254Z,991.09
2022-08-05T04:36:16.781Z,990.99
2022-08-05T04:36:52.202Z,991.07
2022-08-05T04:38:02.158Z,991.07
2022-08-05T04:38:52.255Z,991.09
2022-08-05T04:39:52.693Z,991.04
2022-08-05T04:40:51.242Z,990.87
2022-08-05T04:41:51.468Z,990.78
2022-08-05T04:42:51.210Z,990.66
2022-08-05T04:43:52.828Z,990.57
2022-08-05T04:44:51.202Z,990.50
2022-08-05T04:45:55.602Z,990.44
2022-08-05T04:46:51.112Z,990.52
2022-08-05T04:47:51.163Z,990.46
2022-08-05T04:48:51.670Z,990.40
2022-08-05T04:50:01.290Z,990.35
2022-08-05T04:51:01.955Z,990.34
2022-08-05T04:52:00.300Z,990.31
2022-08-05T04:52:52.115Z,990.35
2022-08-05T04:53:51.090Z,990.29
2022-08-05T04:54:51.074Z,990.29
2022-08-05T04:56:32.748Z,990.29
2022-08-05T04:56:55.268Z,990.35
2022-08-05T04:57:54.341Z,990.44
2022-08-05T04:58:51.018Z,990.47
2022-08-05T04:59:51.043Z,990.53
2022-08-05T05:00:51.242Z,990.48
2022-08-05T05:02:07.900Z,990.44
2022-08-05T05:02:52.112Z,990.31
2022-08-05T05:03:51.080Z,990.38
2022-08-05T05:04:51.420Z,990.33
2022-08-05T05:06:39.653Z,990.33
2022-08-05T05:06:57.584Z,990.32
2022-08-05T05:07:56.043Z,990.30
2022-08-05T05:08:51.063Z,990.33
2022-08-05T05:09:51.040Z,990.31
2022-08-05T05:10:56.109Z,990.37
2022-08-05T05:11:55.398Z,990.36
2022-08-05T05:12:50.939Z,990.31
2022-08-05T05:13:50.933Z,990.30
2022-08-05T05:14:51.414Z,990.31
2022-08-05T05:15:56.953Z,990.38
2022-08-05T05:16:51.851Z,990.40
2022-08-05T05:17:56.300Z,990.41
2022-08-05T05:19:16.460Z,990.40
2022-08-05T05:19:52.816Z,990.33
2022-08-05T05:20:50.840Z,990.39
2022-08-05T05:21:50.796Z,990.38
2022-08-05T05:22:50.777Z,990.49
2022-08-05T05:24:04.332Z,990.53
2022-08-05T05:24:59.114Z,990.58
2022-08-05T05:25:51.821Z,990.64
2022-08-05T05:26:51.932Z,990.67
2022-08-05T05:27:53.956Z,990.74
2022-08-05T05:28:51.787Z,990.79
2022-08-05T05:30:03.321Z,990.89
2022-08-05T05:30:51.695Z,990.88
2022-08-05T05:31:51.068Z,990.85
2022-08-05T05:32:50.762Z,990.82
2022-08-05T05:34:01.931Z,990.85
2022-08-05T05:34:52.422Z,990.81
2022-08-05T05:35:50.657Z,990.83
2022-08-05T05:36:50.694Z,990.83
2022-08-05T05:38:00.140Z,990.75
2022-08-05T05:38:51.656Z,990.71
2022-08-05T06:01:02.525Z,990.87
2022-08-05T06:01:58.983Z,990.93
2022-08-05T06:02:57.758Z,990.96
2022-08-05T06:04:02.121Z,990.89
2022-08-05T06:04:58.888Z,990.85
2022-08-05T06:05:57.854Z,990.82
2022-08-05T06:06:57.618Z,990.84
2022-08-05T06:08:02.103Z,990.77
2022-08-05T06:08:58.613Z,990.75
2022-08-05T06:10:04.474Z,990.75
2022-08-05T06:10:57.695Z,990.73
2022-08-05T06:11:59.137Z,990.80
2022-08-05T06:12:57.527Z,990.78
2022-08-05T06:13:57.540Z,990.82
2022-08-05T06:14:57.622Z,990.80
2022-08-05T06:16:31.371Z,990.74
2022-08-05T06:16:58.524Z,990.67
2022-08-05T06:17:57.512Z,990.64
2022-08-05T06:18:57.494Z,990.52
2022-08-05T06:19:59.561Z,990.64
2022-08-05T06:20:57.475Z,990.57
2022-08-05T06:21:57.495Z,990.54
2022-08-05T06:22:58.096Z,990.52
2022-08-05T06:23:57.423Z,990.54
2022-08-05T06:24:57.951Z,990.57
2022-08-05T06:26:12.812Z,990.50
2022-08-05T06:26:58.469Z,990.48
2022-08-05T06:28:11.314Z,990.46
2022-08-05T06:28:58.400Z,990.42
2022-08-05T06:30:04.499Z,990.43
2022-08-05T06:30:58.347Z,990.46
2022-08-05T06:35:15.549Z,990.66
2022-08-05T06:36:05.676Z,990.49
2022-08-05T06:41:16.717Z,990.53
2022-08-05T06:41:29.680Z,990.53
2022-08-05T06:42:29.873Z,990.53
2022-08-05T06:43:58.966Z,990.44
2022-08-05T06:44:21.996Z,990.36
2022-08-05T06:45:21.304Z,990.36
2022-08-05T06:48:36.959Z,990.28
2022-08-05T06:48:44.293Z,990.36
2022-08-05T06:48:55.923Z,990.22
2022-08-05T06:50:01.200Z,990.14
2022-08-05T06:51:00.093Z,990.03
2022-08-05T07:04:00.553Z,989.86
2022-08-05T07:21:17.659Z,990.16
2022-08-05T07:34:33.399Z,990.01
2022-08-05T08:12:35.457Z,990.51
2022-08-05T08:17:43.987Z,990.50
2022-08-05T08:17:52.653Z,990.57
2022-08-05T08:18:49.978Z,990.59
2022-08-05T08:20:22.360Z,990.60
2022-08-05T08:21:02.082Z,990.67
2022-08-05T08:22:16.592Z,990.75
2022-08-05T08:24:02.164Z,990.83
2022-08-05T08:27:10.740Z,990.78
2022-08-05T08:27:18.420Z,990.81
2022-08-05T08:28:18.862Z,990.80
2022-08-05T08:29:29.420Z,990.78
2022-08-05T08:30:27.648Z,990.75
2022-08-05T08:31:18.404Z,990.70
2022-08-05T08:32:18.608Z,990.74
2022-08-05T08:33:19.790Z,990.74
2022-08-05T08:34:18.567Z,990.78
2022-08-05T08:35:17.252Z,990.78
2022-08-05T08:36:48.795Z,990.73
2022-08-05T08:37:19.936Z,990.67
2022-08-05T08:38:18.333Z,990.71
2022-08-05T08:39:18.160Z,990.70
2022-08-05T08:40:17.109Z,990.76
2022-08-05T08:41:17.077Z,990.69
2022-08-05T08:42:50.552Z,990.70
2022-08-05T08:45:20.173Z,990.86
2022-08-05T08:45:20.945Z,990.79
2022-08-05T08:45:26.570Z,990.80
2022-08-05T08:46:18.000Z,990.73
2022-08-05T08:47:47.487Z,990.77
2022-08-05T08:48:42.996Z,990.76
2022-08-05T08:50:22.627Z,990.80
2022-08-05T08:50:29.998Z,990.83
2022-08-05T08:52:02.040Z,990.79
2022-08-05T08:52:18.001Z,990.86
2022-08-05T08:53:16.973Z,990.87
2022-08-05T08:54:17.134Z,990.91
2022-08-05T08:55:19.551Z,990.95
2022-08-05T08:56:18.112Z,990.92
2022-08-05T08:57:17.721Z,990.90
2022-08-05T08:58:16.894Z,990.88
2022-08-05T08:59:19.696Z,990.83
2022-08-05T09:00:19.453Z,990.85
2022-08-05T09:01:18.318Z,990.89
2022-08-05T09:02:17.718Z,990.88
2022-08-05T09:03:19.252Z,990.96
2022-08-05T09:04:16.828Z,990.96
2022-08-05T09:05:18.520Z,991.06
2022-08-05T09:06:21.386Z,991.00
2022-08-05T09:07:19.617Z,990.97
2022-08-05T09:08:17.839Z,991.01
2022-08-05T09:09:17.023Z,991.07
2022-08-05T09:10:16.788Z,991.03
2022-08-05T09:11:17.138Z,991.11
2022-08-05T09:12:19.938Z,991.09
2022-08-05T09:13:16.775Z,991.09
2022-08-05T09:14:56.938Z,991.11
2022-08-05T09:15:17.974Z,991.05
2022-08-05T09:16:16.870Z,991.05
2022-08-05T09:17:42.220Z,991.00
2022-08-05T09:18:17.682Z,991.08
2022-08-05T09:19:16.690Z,991.08
2022-08-05T09:20:36.663Z,991.09
2022-08-05T09:21:20.736Z,991.11
2022-08-05T09:22:36.263Z,991.14
2022-08-05T09:23:19.991Z,991.14
2022-08-05T09:24:16.906Z,991.12
2022-08-05T09:25:24.474Z,991.12
2022-08-05T09:26:20.934Z,991.20
2022-08-05T09:27:18.716Z,991.14
2022-08-05T09:28:21.065Z,991.16
2022-08-05T09:29:18.846Z,991.17
2022-08-05T09:30:16.679Z,991.15
2022-08-05T09:31:23.354Z,991.12
2022-08-05T09:32:40.058Z,991.03
2022-08-05T09:33:17.668Z,991.03
2022-08-05T09:34:16.605Z,990.96
2022-08-05T09:35:26.601Z,990.98
2022-08-05T09:36:17.631Z,990.99
2022-08-05T09:37:16.802Z,990.97
2022-08-05T09:38:27.447Z,990.94
2022-08-05T09:39:21.926Z,990.98
2022-08-05T09:40:24.567Z,990.91
2022-08-05T09:41:16.458Z,990.96
2022-08-05T09:42:28.293Z,990.97
2022-08-05T09:43:17.538Z,990.99
2022-08-05T09:44:16.487Z,991.00
2022-08-05T09:46:02.694Z,991.01
2022-08-05T09:46:18.984Z,990.98
2022-08-05T09:47:18.008Z,990.90
2022-08-05T09:48:16.530Z,990.98
2022-08-05T09:49:19.116Z,990.94
2022-08-05T09:50:17.796Z,990.97
2022-08-05T09:51:29.169Z,990.96
2022-08-05T09:52:16.360Z,991.01
2022-08-05T09:53:26.175Z,991.04
2022-08-05T09:54:21.404Z,990.95
2022-08-05T09:55:57.612Z,990.96
2022-08-05T09:56:17.416Z,990.99
2022-08-05T09:57:23.436Z,990.95
2022-08-05T09:59:41.313Z,990.95
2022-08-05T09:59:45.840Z,990.93
2022-08-05T10:02:10.258Z,990.91
2022-08-05T10:02:14.691Z,990.88
2022-08-05T10:03:15.776Z,990.81
2022-08-05T10:05:35.758Z,990.76
2022-08-05T10:07:14.093Z,990.77
2022-08-05T10:07:20.481Z,990.67
2022-08-05T10:08:37.696Z,990.70
2022-08-05T10:09:27.443Z,990.77
2022-08-05T10:10:15.119Z,990.74
2022-08-05T10:11:10.886Z,990.75
2022-08-05T10:12:18.967Z,990.78
2022-08-05T10:14:33.977Z,990.84
2022-08-05T10:15:34.618Z,990.78
2022-08-05T10:15:38.197Z,990.80
2022-08-05T10:16:52.541Z,990.86
2022-08-05T10:17:40.734Z,990.81
2022-08-05T10:18:38.354Z,990.86
2022-08-05T10:22:34.824Z,990.81
2022-08-05T10:23:55.071Z,990.81
2022-08-05T10:28:09.230Z,990.65
2022-08-05T10:28:41.627Z,990.71
2022-08-05T10:30:41.022Z,990.71
2022-08-05T10:32:48.605Z,990.67
2022-08-05T10:32:51.661Z,990.58
2022-08-05T10:32:52.724Z,990.69
2022-08-05T10:33:42.143Z,990.65
2022-08-05T10:34:41.103Z,990.59
2022-08-05T10:35:44.086Z,990.61
2022-08-05T10:38:02.400Z,990.62
2022-08-05T10:38:59.149Z,990.70
2022-08-05T10:39:10.333Z,990.64
2022-08-05T10:40:45.055Z,990.58
2022-08-05T10:41:06.468Z,990.58
2022-08-05T10:42:05.594Z,990.61
2022-08-05T10:43:05.800Z,990.58
2022-08-05T10:44:07.113Z,990.64
2022-08-05T10:45:21.065Z,990.66
2022-08-05T10:46:07.058Z,990.58
2022-08-05T10:47:05.641Z,990.58
2022-08-05T10:48:31.440Z,990.62
2022-08-05T10:49:26.986Z,990.58
2022-08-05T10:50:31.834Z,990.54
2022-08-05T10:51:22.506Z,990.53
2022-08-05T10:53:39.473Z,990.53
2022-08-05T10:54:38.727Z,990.56
2022-08-05T10:56:05.041Z,990.61
2022-08-05T10:56:38.556Z,990.64
2022-08-05T10:57:38.715Z,990.67
2022-08-05T10:58:48.680Z,990.67
2022-08-05T11:00:02.963Z,990.62
2022-08-05T11:00:45.842Z,990.65
2022-08-05T11:01:55.045Z,990.66
2022-08-05T11:02:43.801Z,990.65
2022-08-05T11:03:39.309Z,990.71
2022-08-05T11:04:42.010Z,990.67
2022-08-05T11:05:37.500Z,990.76
2022-08-05T11:08:36.788Z,990.73
2022-08-05T11:08:39.083Z,990.78
2022-08-05T11:09:32.100Z,990.73
2022-08-05T11:10:22.906Z,990.74
2022-08-05T11:11:21.098Z,990.69
2022-08-05T11:13:54.757Z,990.74
2022-08-05T11:13:55.026Z,990.77
2022-08-05T11:15:01.122Z,990.78
2022-08-05T11:16:00.937Z,990.76
2022-08-05T11:16:58.611Z,990.79
2022-08-05T11:17:57.615Z,990.77
2022-08-05T11:18:51.749Z,990.85
2022-08-05T11:20:10.582Z,990.81
2022-08-05T11:20:50.373Z,990.77
2022-08-05T11:21:49.744Z,990.86
2022-08-05T11:22:50.039Z,990.77
2022-08-05T11:24:05.660Z,990.85
2022-08-05T11:24:50.682Z,990.84
2022-08-05T11:26:04.790Z,990.83
2022-08-05T11:26:50.199Z,990.80
2022-08-05T11:29:15.614Z,990.83
2022-08-05T11:29:31.945Z,990.91
2022-08-05T11:30:17.469Z,990.95
2022-08-05T11:31:54.380Z,991.06
2022-08-05T11:32:18.353Z,991.08
2022-08-05T11:33:21.093Z,991.10
2022-08-05T11:34:22.497Z,991.12
2022-08-05T11:35:18.342Z,991.20
2022-08-05T11:36:34.509Z,991.24
2022-08-05T11:38:28.358Z,991.46
2022-08-05T11:38:29.526Z,991.30
2022-08-05T11:39:18.445Z,991.36
2022-08-05T11:40:18.390Z,991.33
2022-08-05T11:41:56.351Z,991.40
2022-08-05T11:42:18.651Z,991.40
2022-08-05T11:43:17.694Z,991.53
2022-08-05T11:44:40.794Z,991.44
2022-08-05T11:46:15.610Z,991.39
2022-08-05T11:46:32.788Z,991.50
2022-08-05T11:47:22.074Z,991.49
2022-08-05T11:48:18.242Z,991.51
2022-08-05T11:49:17.170Z,991.48
2022-08-05T11:50:17.257Z,991.44
2022-08-05T11:51:44.411Z,991.50
2022-08-05T11:52:18.125Z,991.51
2022-08-05T11:53:17.159Z,991.47
2022-08-05T11:54:17.129Z,991.51
2022-08-05T11:55:17.198Z,991.45
2022-08-05T11:56:17.055Z,991.48
2022-08-05T11:57:25.407Z,991.49
2022-08-05T11:58:18.108Z,991.54
2022-08-05T11:59:17.137Z,991.57
2022-08-05T12:00:17.055Z,991.59
2022-08-05T12:01:19.132Z,991.64
2022-08-05T12:02:30.524Z,991.71
2022-08-05T12:03:24.089Z,991.71
2022-08-05T12:04:18.039Z,991.64
2022-08-05T12:05:18.112Z,991.72
2022-08-05T12:06:17.146Z,991.74
2022-08-05T12:07:17.017Z,991.79
2022-08-05T12:08:18.417Z,991.87
2022-08-05T12:09:19.848Z,991.78
2022-08-05T12:10:18.081Z,991.84
2022-08-05T12:11:20.209Z,991.81
2022-08-05T12:12:16.930Z,991.86
2022-08-05T12:13:47.509Z,991.94
2022-08-05T12:14:18.090Z,991.99
2022-08-05T12:15:16.994Z,992.02
2022-08-05T12:16:16.990Z,992.12
2022-08-05T12:18:04.310Z,992.05
2022-08-05T12:18:18.095Z,992.08
2022-08-05T12:20:26.288Z,992.09
2022-08-05T12:20:30.760Z,992.11
2022-08-05T12:21:17.850Z,992.19
2022-08-05T12:22:19.943Z,992.15
2022-08-05T12:23:17.818Z,992.22
2022-08-05T12:24:17.383Z,992.21
2022-08-05T12:25:16.822Z,992.26
2022-08-05T12:26:16.782Z,992.25
2022-08-05T12:27:21.635Z,992.19
2022-08-05T12:28:17.824Z,992.32
2022-08-05T12:29:17.928Z,992.26
2022-08-05T12:30:17.826Z,992.31
2022-08-05T12:31:23.462Z,992.30
2022-08-05T12:32:17.775Z,992.32
2022-08-05T12:33:27.240Z,992.30
2022-08-05T12:34:21.585Z,992.39
2022-08-05T12:35:21.664Z,992.49
2022-08-05T12:36:16.799Z,992.51
2022-08-05T12:37:17.555Z,992.50
2022-08-05T12:38:17.707Z,992.50
2022-08-05T12:39:16.743Z,992.62
2022-08-05T12:40:26.417Z,992.60
2022-08-05T12:41:17.642Z,992.71
2022-08-05T12:42:16.628Z,992.68
2022-08-05T12:43:20.784Z,992.79
2022-08-05T12:44:21.506Z,992.75
2022-08-05T12:45:16.625Z,992.87
2022-08-05T12:46:17.223Z,992.78
2022-08-05T12:47:17.059Z,992.87
2022-08-05T12:48:27.045Z,992.86
2022-08-05T12:49:19.157Z,992.92
2022-08-05T12:50:17.265Z,992.99
2022-08-05T12:52:10.192Z,992.97
2022-08-05T12:52:46.203Z,993.07
2022-08-05T12:53:55.604Z,993.07
2022-08-05T12:54:47.227Z,993.10
2022-08-05T12:55:46.112Z,993.12
2022-08-05T12:56:46.080Z,993.23
2022-08-05T12:58:52.054Z,993.35
2022-08-05T12:58:52.684Z,993.22
2022-08-05T13:01:57.957Z,993.43
